createdAt,value
2022-12-13T00:01:53.091Z,1.50
2022-12-13T00:04:22.878Z,1.50
2022-12-13T00:06:53.933Z,1.50
2022-12-13T00:09:22.992Z,1.50
2022-12-13T00:11:52.243Z,1.50
2022-12-13T00:14:20.865Z,1.40
2022-12-13T00:16:51.506Z,1.40
2022-12-13T00:19:20.508Z,1.40
2022-12-13T00:21:49.122Z,1.40
2022-12-13T00:24:17.985Z,1.40
2022-12-13T00:26:46.354Z,1.40
2022-12-13T00:29:14.941Z,1.40
2022-12-13T00:34:33.289Z,1.40
2022-12-13T00:37:01.651Z,1.40
2022-12-13T00:39:30.388Z,1.40
2022-12-13T00:41:59.131Z,1.30
2022-12-13T00:44:27.881Z,1.30
2022-12-13T00:46:56.637Z,1.30
2022-12-13T00:49:25.366Z,1.30
2022-12-13T00:51:55.364Z,1.30
2022-12-13T00:54:23.724Z,1.30
2022-12-13T00:56:52.582Z,1.30
2022-12-13T00:59:20.985Z,1.20
2022-12-13T01:01:49.800Z,1.20
2022-12-13T01:04:18.168Z,1.20
2022-12-13T01:06:49.942Z,1.20
2022-12-13T01:09:27.133Z,1.10
2022-12-13T01:11:58.927Z,1.10
2022-12-13T01:14:27.610Z,1.10
2022-12-13T01:16:56.577Z,1.10
2022-12-13T01:19:26.217Z,1.10
2022-12-13T01:21:55.991Z,1.00
2022-12-13T01:24:26.125Z,1.00
2022-12-13T01:26:57.194Z,1.00
2022-12-13T01:29:27.711Z,1.00
2022-12-13T01:31:56.308Z,0.90
2022-12-13T01:34:27.534Z,1.00
2022-12-13T01:36:58.515Z,0.90
2022-12-13T01:39:29.089Z,0.90
2022-12-13T01:42:00.065Z,0.90
2022-12-13T01:45:08.293Z,1.00
2022-12-13T01:47:41.775Z,0.80
2022-12-13T01:50:13.644Z,0.80
2022-12-13T01:52:43.761Z,0.80
2022-12-13T01:55:16.151Z,0.70
2022-12-13T01:57:48.392Z,0.70
2022-12-13T02:00:17.932Z,0.60
2022-12-13T02:02:47.951Z,0.60
2022-12-13T02:05:22.677Z,0.50
2022-12-13T02:07:52.211Z,0.40
2022-12-13T02:10:22.130Z,0.40
2022-12-13T02:12:51.306Z,0.40
2022-12-13T02:15:21.055Z,0.30
2022-12-13T02:18:04.589Z,0.30
2022-12-13T02:20:51.197Z,0.20
2022-12-13T02:23:52.466Z,0.20
2022-12-13T02:26:53.960Z,0.20
2022-12-13T02:29:54.848Z,0.30
2022-12-13T02:32:33.973Z,0.30
2022-12-13T02:35:10.136Z,0.30
2022-12-13T02:37:51.669Z,0.30
2022-12-13T02:40:24.947Z,0.30
2022-12-13T02:43:00.050Z,0.30
2022-12-13T02:45:32.365Z,0.30
2022-12-13T02:48:04.945Z,0.30
2022-12-13T02:50:34.659Z,0.30
2022-12-13T02:53:03.680Z,0.20
2022-12-13T02:55:35.842Z,0.20
2022-12-13T02:58:04.197Z,0.20
2022-12-13T03:00:41.321Z,0.20
2022-12-13T03:03:22.693Z,0.10
2022-12-13T03:06:16.225Z,0.10
2022-12-13T03:08:55.067Z,0.10
2022-12-13T03:11:26.858Z,0.00
2022-12-13T03:13:57.164Z,0.00
2022-12-13T03:16:33.870Z,-0.10
2022-12-13T03:19:07.138Z,-0.20
2022-12-13T03:21:45.513Z,-0.20
2022-12-13T03:24:17.817Z,-0.30
2022-12-13T03:26:48.375Z,-0.30
2022-12-13T03:29:23.941Z,-0.30
2022-12-13T03:31:53.935Z,-0.40
2022-12-13T03:34:23.945Z,-0.30
2022-12-13T03:36:52.956Z,-0.30
2022-12-13T03:39:21.525Z,-0.40
2022-12-13T03:41:50.899Z,-0.30
2022-12-13T03:44:19.226Z,-0.30
2022-12-13T03:46:47.859Z,-0.40
2022-12-13T03:49:17.576Z,-0.40
2022-12-13T03:51:47.940Z,-0.40
2022-12-13T03:54:16.567Z,-0.50
2022-12-13T03:56:45.106Z,-0.50
2022-12-13T03:59:13.367Z,-0.50
2022-12-13T04:01:42.138Z,-0.60
2022-12-13T04:04:10.446Z,-0.60
2022-12-13T04:06:39.133Z,-0.60
2022-12-13T04:09:08.761Z,-0.60
2022-12-13T04:11:55.140Z,-0.60
2022-12-13T04:14:23.441Z,-0.70
2022-12-13T04:16:52.827Z,-0.70
2022-12-13T04:19:22.907Z,-0.70
2022-12-13T04:21:54.490Z,-0.70
2022-12-13T04:24:31.372Z,-0.70
2022-12-13T04:27:01.537Z,-0.70
2022-12-13T04:29:34.461Z,-0.70
2022-12-13T04:32:04.417Z,-0.70
2022-12-13T04:34:37.192Z,-0.80
2022-12-13T04:37:06.917Z,-0.80
2022-12-13T04:39:36.702Z,-0.80
2022-12-13T04:42:06.033Z,-0.70
2022-12-13T04:44:37.021Z,-0.70
2022-12-13T04:47:06.152Z,-0.70
2022-12-13T04:49:35.410Z,-0.70
2022-12-13T04:52:04.278Z,-0.70
2022-12-13T04:54:36.674Z,-0.60
2022-12-13T04:57:11.291Z,-0.60
2022-12-13T04:59:40.124Z,-0.60
2022-12-13T05:02:09.960Z,-0.60
2022-12-13T05:04:38.380Z,-0.50
2022-12-13T05:07:07.012Z,-0.50
2022-12-13T05:09:35.295Z,-0.50
2022-12-13T05:12:03.856Z,-0.50
2022-12-13T05:14:42.502Z,-0.50
2022-12-13T05:17:11.111Z,-0.50
2022-12-13T05:19:39.421Z,-0.50
2022-12-13T05:22:19.672Z,-0.50
2022-12-13T05:24:49.991Z,-0.50
2022-12-13T05:27:24.443Z,-0.50
2022-12-13T05:30:03.834Z,-0.50
2022-12-13T05:32:43.142Z,-0.50
2022-12-13T05:35:14.207Z,-0.40
2022-12-13T05:37:53.414Z,-0.50
2022-12-13T05:40:22.903Z,-0.50
2022-12-13T05:42:51.444Z,-0.50
2022-12-13T05:45:21.552Z,-0.50
2022-12-13T05:47:50.259Z,-0.50
2022-12-13T05:50:19.002Z,-0.50
2022-12-13T05:52:47.774Z,-0.60
2022-12-13T05:55:16.378Z,-0.60
2022-12-13T05:57:50.575Z,-0.60
2022-12-13T06:00:28.696Z,-0.60
2022-12-13T06:03:00.447Z,-0.60
2022-12-13T06:05:29.857Z,-0.60
2022-12-13T06:07:59.040Z,-0.60
2022-12-13T06:10:34.655Z,-0.60
2022-12-13T06:13:21.807Z,-0.60
2022-12-13T06:16:01.008Z,-0.60
2022-12-13T06:18:32.641Z,-0.60
2022-12-13T06:21:02.823Z,-0.60
2022-12-13T06:23:32.891Z,-0.60
2022-12-13T06:26:04.469Z,-0.60
2022-12-13T06:28:33.410Z,-0.60
2022-12-13T06:31:03.597Z,-0.50
2022-12-13T06:33:35.557Z,-0.50
2022-12-13T06:36:04.979Z,-0.50
2022-12-13T06:38:34.279Z,-0.50
2022-12-13T06:41:13.110Z,-0.50
2022-12-13T06:43:43.980Z,-0.50
2022-12-13T06:46:14.669Z,-0.50
2022-12-13T06:48:43.420Z,-0.50
2022-12-13T06:51:12.101Z,-0.50
2022-12-13T06:53:42.075Z,-0.50
2022-12-13T06:56:12.681Z,-0.50
2022-12-13T06:58:42.064Z,-0.50
2022-12-13T07:01:24.165Z,-0.50
2022-12-13T07:03:57.793Z,-0.50
2022-12-13T07:06:27.351Z,-0.50
2022-12-13T07:08:58.331Z,-0.50
2022-12-13T07:11:29.668Z,-0.30
2022-12-13T07:13:58.745Z,-0.50
2022-12-13T07:16:29.634Z,-0.40
2022-12-13T07:19:01.078Z,-0.40
2022-12-13T07:21:31.166Z,-0.50
2022-12-13T07:24:01.265Z,-0.40
2022-12-13T07:26:29.596Z,-0.40
2022-12-13T07:28:58.402Z,-0.30
2022-12-13T07:31:28.418Z,-0.30
2022-12-13T07:33:57.059Z,-0.30
2022-12-13T07:36:25.709Z,-0.30
2022-12-13T07:38:55.818Z,-0.20
2022-12-13T07:41:25.083Z,-0.20
2022-12-13T07:43:55.349Z,-0.20
2022-12-13T07:46:33.520Z,-0.20
2022-12-13T07:49:04.357Z,-0.10
2022-12-13T07:51:34.966Z,-0.20
2022-12-13T07:54:06.824Z,-0.10
2022-12-13T07:56:35.634Z,-0.10
2022-12-13T07:59:04.690Z,-0.10
2022-12-13T08:01:34.541Z,-0.10
2022-12-13T08:04:05.682Z,0.00
2022-12-13T08:06:37.184Z,0.00
2022-12-13T08:09:06.991Z,0.10
2022-12-13T08:11:35.703Z,0.10
2022-12-13T08:14:04.559Z,0.20
2022-12-13T08:16:33.165Z,0.20
2022-12-13T08:19:04.599Z,0.20
2022-12-13T08:21:56.164Z,0.20
2022-12-13T08:24:26.500Z,0.30
2022-12-13T08:26:55.030Z,0.30
2022-12-13T08:29:34.244Z,0.40
2022-12-13T08:32:05.146Z,0.40
2022-12-13T08:34:33.931Z,0.50
2022-12-13T08:37:05.104Z,0.50
2022-12-13T08:39:36.269Z,0.50
2022-12-13T08:42:17.020Z,0.50
2022-12-13T08:44:51.676Z,0.60
2022-12-13T08:47:23.165Z,0.60
2022-12-13T08:50:02.197Z,0.60
2022-12-13T08:52:39.227Z,0.70
2022-12-13T08:55:10.146Z,0.70
2022-12-13T08:57:38.543Z,0.80
2022-12-13T09:00:09.029Z,0.80
2022-12-13T09:02:38.383Z,0.80
2022-12-13T09:05:08.713Z,0.90
2022-12-13T09:07:39.624Z,0.90
2022-12-13T09:10:38.130Z,0.90
2022-12-13T09:13:01.639Z,1.00
2022-12-13T09:15:34.491Z,1.00
2022-12-13T09:18:05.227Z,1.00
2022-12-13T09:20:40.503Z,1.20
2022-12-13T09:23:14.179Z,1.10
2022-12-13T09:26:05.210Z,1.10
2022-12-13T09:28:35.286Z,1.20
2022-12-13T09:31:08.596Z,1.20
2022-12-13T09:33:41.314Z,1.30
2022-12-13T09:36:14.378Z,1.30
2022-12-13T09:38:44.247Z,1.30
2022-12-13T09:41:20.406Z,1.30
2022-12-13T09:44:01.343Z,1.40
2022-12-13T09:46:34.424Z,1.40
2022-12-13T09:49:22.947Z,1.50
2022-12-13T09:52:11.213Z,1.50
2022-12-13T09:54:48.829Z,1.60
2022-12-13T09:57:32.778Z,1.70
2022-12-13T10:00:03.543Z,1.70
2022-12-13T10:02:34.918Z,1.80
2022-12-13T10:05:22.594Z,1.80
2022-12-13T10:07:56.844Z,1.80
2022-12-13T10:10:27.188Z,1.90
2022-12-13T10:13:04.745Z,1.90
2022-12-13T10:15:37.408Z,1.90
2022-12-13T10:18:07.925Z,1.90
2022-12-13T10:20:36.351Z,1.90
2022-12-13T10:26:03.012Z,1.90
2022-12-13T10:28:34.377Z,1.90
2022-12-13T10:31:03.258Z,1.80
2022-12-13T10:33:34.789Z,1.90
2022-12-13T10:36:09.078Z,1.80
2022-12-13T10:38:39.608Z,1.90
2022-12-13T10:41:30.663Z,1.90
2022-12-13T10:44:25.341Z,1.90
2022-12-13T10:47:03.054Z,1.90
2022-12-13T10:49:40.947Z,1.80
2022-12-13T10:52:31.491Z,1.80
2022-12-13T10:55:23.550Z,1.80
2022-12-13T10:57:55.469Z,1.80
2022-12-13T11:00:40.835Z,1.80
2022-12-13T11:03:13.642Z,1.90
2022-12-13T11:05:42.378Z,2.00
2022-12-13T11:08:22.608Z,2.00
2022-12-13T11:10:59.528Z,2.00
2022-12-13T11:13:36.982Z,2.00
2022-12-13T11:16:17.843Z,2.10
2022-12-13T11:18:52.428Z,2.10
2022-12-13T11:21:26.431Z,2.00
2022-12-13T11:23:57.475Z,2.10
2022-12-13T11:26:33.778Z,2.10
2022-12-13T11:29:34.516Z,2.10
2022-12-13T11:32:12.168Z,2.10
2022-12-13T11:34:47.929Z,2.20
2022-12-13T11:37:26.640Z,2.10
2022-12-13T11:40:01.533Z,2.20
2022-12-13T11:42:34.597Z,2.20
2022-12-13T11:45:13.675Z,2.20
2022-12-13T11:48:01.740Z,2.20
2022-12-13T11:50:35.544Z,2.20
2022-12-13T11:53:24.125Z,2.40
2022-12-13T11:55:57.498Z,2.20
2022-12-13T11:59:02.331Z,2.20
2022-12-13T12:01:27.634Z,2.30
2022-12-13T12:04:02.331Z,2.30
2022-12-13T12:06:38.390Z,2.30
2022-12-13T12:09:10.666Z,2.30
2022-12-13T12:11:46.724Z,2.40
2022-12-13T12:14:20.697Z,2.40
2022-12-13T12:16:53.758Z,2.40
2022-12-13T12:19:24.941Z,2.40
2022-12-13T12:22:14.307Z,2.50
2022-12-13T12:25:00.247Z,2.40
2022-12-13T12:27:38.382Z,2.40
2022-12-13T12:30:22.671Z,2.40
2022-12-13T12:32:57.918Z,2.40
2022-12-13T12:35:46.422Z,2.30
2022-12-13T12:38:35.977Z,2.30
2022-12-13T12:41:25.668Z,2.30
2022-12-13T12:44:01.933Z,2.30
2022-12-13T12:50:06.860Z,2.20
2022-12-13T12:52:50.408Z,2.20
2022-12-13T12:55:38.230Z,2.20
2022-12-13T12:58:16.649Z,2.20
2022-12-13T13:00:54.648Z,2.20
2022-12-13T13:03:25.204Z,2.20
2022-12-13T13:06:02.663Z,2.20
2022-12-13T13:08:40.966Z,2.10
2022-12-13T13:11:24.542Z,2.10
2022-12-13T13:14:07.101Z,2.00
2022-12-13T13:16:38.502Z,2.00
2022-12-13T13:19:27.561Z,1.90
2022-12-13T13:22:01.400Z,1.90
2022-12-13T13:24:32.935Z,1.90
2022-12-13T13:27:29.271Z,1.80
2022-12-13T13:30:07.921Z,1.80
2022-12-13T13:32:40.759Z,1.80
2022-12-13T13:35:48.109Z,1.70
2022-12-13T13:38:53.428Z,1.70
2022-12-13T13:41:42.382Z,1.70
2022-12-13T13:44:54.526Z,1.60
2022-12-13T13:47:45.444Z,1.50
2022-12-13T13:50:53.988Z,1.40
2022-12-13T13:54:00.553Z,1.30
2022-12-13T13:57:01.200Z,1.30
2022-12-13T14:00:02.215Z,1.10
2022-12-13T14:03:33.196Z,1.00
2022-12-13T14:06:24.565Z,0.90
2022-12-13T14:09:23.001Z,0.90
2022-12-13T14:12:26.663Z,0.80
2022-12-13T14:15:40.405Z,0.70
2022-12-13T14:18:51.578Z,0.70
2022-12-13T14:21:27.741Z,0.70
2022-12-13T14:24:09.421Z,0.70
2022-12-13T14:26:51.579Z,0.60
2022-12-13T14:29:27.645Z,0.60
2022-12-13T14:31:56.655Z,0.60
2022-12-13T14:34:27.672Z,0.60
2022-12-13T14:36:57.872Z,0.60
2022-12-13T14:39:29.620Z,0.60
2022-12-13T14:42:00.375Z,0.70
2022-12-13T14:44:31.207Z,0.70
2022-12-13T14:47:02.509Z,0.80
2022-12-13T14:49:33.738Z,0.90
2022-12-13T14:52:07.158Z,1.00
2022-12-13T14:54:46.472Z,1.10
2022-12-13T14:57:18.290Z,1.10
2022-12-13T14:59:50.437Z,1.20
2022-12-13T15:02:30.742Z,1.30
2022-12-13T15:05:02.728Z,1.50
2022-12-13T15:07:35.753Z,1.40
2022-12-13T15:10:19.343Z,1.50
2022-12-13T15:12:49.177Z,1.40
2022-12-13T15:15:24.614Z,1.40
2022-12-13T15:18:08.095Z,1.30
2022-12-13T15:20:41.151Z,1.20
2022-12-13T15:23:16.136Z,1.10
2022-12-13T15:25:48.067Z,1.00
2022-12-13T15:28:21.644Z,0.90
2022-12-13T15:30:51.569Z,0.80
2022-12-13T15:33:26.358Z,0.70
2022-12-13T15:36:09.591Z,0.70
2022-12-13T15:38:41.267Z,0.60
2022-12-13T15:41:18.940Z,0.50
2022-12-13T15:43:50.134Z,0.40
2022-12-13T15:46:26.134Z,0.30
2022-12-13T15:48:56.398Z,0.20
2022-12-13T15:51:29.059Z,0.10
2022-12-13T15:54:08.344Z,0.10
2022-12-13T15:56:43.987Z,-0.10
2022-12-13T15:59:27.360Z,-0.10
2022-12-13T16:01:58.628Z,-0.20
2022-12-13T16:04:29.759Z,-0.30
2022-12-13T16:06:59.010Z,-0.30
2022-12-13T16:09:30.936Z,-0.40
2022-12-13T16:12:03.099Z,-0.40
2022-12-13T16:14:48.934Z,-0.50
2022-12-13T16:17:25.560Z,-0.50
2022-12-13T16:19:57.325Z,-0.50
2022-12-13T16:22:26.010Z,-0.50
2022-12-13T16:24:56.414Z,-0.50
2022-12-13T16:27:26.451Z,-0.50
2022-12-13T16:29:54.829Z,-0.50
2022-12-13T16:32:23.823Z,-0.60
2022-12-13T16:34:52.411Z,-0.60
2022-12-13T16:37:27.478Z,-0.60
2022-12-13T16:39:56.428Z,-0.60
2022-12-13T16:42:27.434Z,-0.60
2022-12-13T16:45:40.756Z,-0.60
2022-12-13T16:47:49.276Z,-0.60
2022-12-13T16:50:19.803Z,-0.50
2022-12-13T16:52:48.686Z,-0.50
2022-12-13T16:55:17.507Z,-0.50
2022-12-13T16:57:57.441Z,-0.50
2022-12-13T17:00:26.838Z,-0.50
2022-12-13T17:02:55.564Z,-0.50
2022-12-13T17:05:26.879Z,-0.50
2022-12-13T17:07:56.623Z,-0.50
2022-12-13T17:10:25.361Z,-0.50
2022-12-13T17:12:55.571Z,-0.60
2022-12-13T17:15:23.913Z,-0.60
2022-12-13T17:17:52.597Z,-0.60
2022-12-13T17:20:21.137Z,-0.60
2022-12-13T17:22:49.665Z,-0.60
2022-12-13T17:25:18.378Z,-0.60
2022-12-13T17:27:47.123Z,-0.60
2022-12-13T17:30:18.906Z,-0.60
2022-12-13T17:32:47.749Z,-0.60
2022-12-13T17:35:18.563Z,-0.60
2022-12-13T17:37:47.996Z,-0.60
2022-12-13T17:40:18.246Z,-0.50
2022-12-13T17:42:50.641Z,-0.60
2022-12-13T17:45:21.609Z,-0.50
2022-12-13T17:47:50.819Z,-0.50
2022-12-13T17:50:19.190Z,-0.50
2022-12-13T17:52:47.721Z,-0.50
2022-12-13T17:55:18.491Z,-0.50
2022-12-13T17:57:47.573Z,-0.50
2022-12-13T18:00:17.132Z,-0.30
2022-12-13T18:02:55.308Z,-0.20
2022-12-13T18:05:29.123Z,0.00
2022-12-13T18:07:57.863Z,0.20
2022-12-13T18:10:29.746Z,0.40
2022-12-13T18:12:58.924Z,0.60
2022-12-13T18:15:27.426Z,0.80
2022-12-13T18:18:11.178Z,1.00
2022-12-13T18:20:40.216Z,1.20
2022-12-13T18:23:08.909Z,1.40
2022-12-13T18:25:37.475Z,1.60
2022-12-13T18:28:06.822Z,1.70
2022-12-13T18:30:35.121Z,1.80
2022-12-13T18:33:05.865Z,1.90
2022-12-13T18:35:35.094Z,2.00
2022-12-13T18:38:03.724Z,2.10
2022-12-13T18:40:33.257Z,2.20
2022-12-13T18:43:02.003Z,2.20
2022-12-13T18:45:30.299Z,2.20
2022-12-13T18:47:58.883Z,2.30
2022-12-13T18:50:28.550Z,2.20
2022-12-13T18:52:57.169Z,2.20
2022-12-13T18:55:25.406Z,2.20
2022-12-13T18:57:54.108Z,2.20
2022-12-13T19:00:24.191Z,2.20
2022-12-13T19:02:52.837Z,2.20
2022-12-13T19:05:22.836Z,2.20
2022-12-13T19:07:52.872Z,2.10
2022-12-13T19:10:21.212Z,2.10
2022-12-13T19:12:49.870Z,2.10
2022-12-13T19:15:19.047Z,2.10
2022-12-13T19:17:48.116Z,2.10
2022-12-13T19:20:17.317Z,2.10
2022-12-13T19:22:46.854Z,2.00
2022-12-13T19:25:17.052Z,1.80
2022-12-13T19:27:47.420Z,1.70
2022-12-13T19:30:17.754Z,1.40
2022-12-13T19:32:48.190Z,1.20
2022-12-13T19:35:16.987Z,1.00
2022-12-13T19:37:45.564Z,0.80
2022-12-13T19:40:13.989Z,0.60
2022-12-13T19:42:43.950Z,0.50
2022-12-13T19:45:12.259Z,0.30
2022-12-13T19:47:40.934Z,0.20
2022-12-13T19:50:11.089Z,0.00
2022-12-13T19:52:39.765Z,-0.10
2022-12-13T19:55:08.467Z,-0.20
2022-12-13T19:57:37.032Z,-0.30
2022-12-13T20:00:08.155Z,-0.40
2022-12-13T20:02:36.798Z,-0.50
2022-12-13T20:05:06.329Z,-0.60
2022-12-13T20:07:34.989Z,-0.60
2022-12-13T20:10:03.257Z,-0.70
2022-12-13T20:12:37.088Z,-0.70
2022-12-13T20:15:11.256Z,-0.80
2022-12-13T20:17:39.901Z,-0.90
2022-12-13T20:20:08.716Z,-0.90
2022-12-13T20:22:37.325Z,-1.00
2022-12-13T20:25:07.071Z,-1.10
2022-12-13T20:27:35.622Z,-1.10
2022-12-13T20:30:04.948Z,-1.20
2022-12-13T20:32:35.130Z,-1.20
2022-12-13T20:35:03.370Z,-1.30
2022-12-13T20:37:32.316Z,-1.40
2022-12-13T20:40:00.873Z,-1.40
2022-12-13T20:42:30.463Z,-1.50
2022-12-13T20:44:59.964Z,-1.50
2022-12-13T20:47:28.568Z,-1.50
2022-12-13T20:49:58.269Z,-1.40
2022-12-13T20:52:27.031Z,-1.30
2022-12-13T20:54:55.565Z,-1.20
2022-12-13T20:57:24.128Z,-1.00
2022-12-13T20:59:52.426Z,-0.80
2022-12-13T21:02:21.020Z,-0.60
2022-12-13T21:04:49.533Z,-0.50
2022-12-13T21:07:39.417Z,-0.30
2022-12-13T21:10:08.578Z,-0.20
2022-12-13T21:12:37.155Z,0.00
2022-12-13T21:15:05.991Z,0.10
2022-12-13T21:17:34.537Z,0.20
2022-12-13T21:20:02.871Z,0.30
2022-12-13T21:22:32.800Z,0.40
2022-12-13T21:25:01.564Z,0.50
2022-12-13T21:27:30.190Z,0.50
2022-12-13T21:29:58.371Z,0.60
2022-12-13T21:32:27.062Z,0.60
2022-12-13T21:34:55.356Z,0.60
2022-12-13T21:37:23.904Z,0.60
2022-12-13T21:39:53.610Z,0.70
2022-12-13T21:42:22.237Z,0.70
2022-12-13T21:44:50.748Z,0.60
2022-12-13T21:47:21.460Z,0.60
2022-12-13T21:49:49.748Z,0.60
2022-12-13T21:52:18.646Z,0.70
2022-12-13T21:54:46.958Z,0.60
2022-12-13T21:57:34.461Z,0.60
2022-12-13T22:00:02.711Z,0.50
2022-12-13T22:02:32.892Z,0.40
2022-12-13T22:05:01.234Z,0.40
2022-12-13T22:07:31.476Z,0.40
2022-12-13T22:10:01.299Z,0.30
2022-12-13T22:12:34.933Z,0.30
2022-12-13T22:15:05.018Z,0.20
2022-12-13T22:17:36.119Z,0.20
2022-12-13T22:20:06.549Z,0.10
2022-12-13T22:22:35.559Z,0.00
2022-12-13T22:25:03.964Z,0.00
2022-12-13T22:27:33.868Z,0.00
2022-12-13T22:30:02.103Z,-0.10
2022-12-13T22:32:33.909Z,-0.20
2022-12-13T22:35:02.326Z,-0.20
2022-12-13T22:37:30.897Z,-0.30
2022-12-13T22:39:59.192Z,-0.30
2022-12-13T22:42:27.790Z,-0.40
2022-12-13T22:44:57.490Z,-0.40
2022-12-13T22:47:26.284Z,-0.50
2022-12-13T22:49:54.522Z,-0.50
2022-12-13T22:52:23.136Z,-0.60
2022-12-13T22:54:51.558Z,-0.60
2022-12-13T22:57:20.066Z,-0.60
2022-12-13T22:59:48.307Z,-0.70
2022-12-13T23:02:18.484Z,-0.70
2022-12-13T23:04:47.078Z,-0.80
2022-12-13T23:07:15.680Z,-0.90
2022-12-13T23:09:44.149Z,-0.90
2022-12-13T23:12:30.683Z,-1.00
2022-12-13T23:14:59.063Z,-1.00
2022-12-13T23:17:29.046Z,-1.10
2022-12-13T23:19:57.503Z,-1.10
2022-12-13T23:22:27.031Z,-1.20
2022-12-13T23:24:55.633Z,-1.20
2022-12-13T23:27:25.320Z,-1.30
2022-12-13T23:29:53.646Z,-1.30
2022-12-13T23:32:22.185Z,-1.30
2022-12-13T23:34:52.351Z,-1.40
2022-12-13T23:37:20.901Z,-1.40
2022-12-13T23:39:49.207Z,-1.50
2022-12-13T23:42:17.898Z,-1.50
2022-12-13T23:44:46.238Z,-1.50
2022-12-13T23:47:14.780Z,-1.60
2022-12-13T23:49:43.390Z,-1.60
2022-12-13T23:52:13.456Z,-1.70
2022-12-13T23:54:41.727Z,-1.70
2022-12-13T23:57:10.278Z,-1.70
2022-12-13T23:59:38.747Z,-1.70
